createdAt,value
2023-02-16T00:00:32.150Z,8.60
2023-02-16T00:03:02.290Z,9.60
2023-02-16T00:05:36.703Z,9.50
2023-02-16T00:08:06.835Z,9.30
2023-02-16T00:10:39.103Z,8.60
2023-02-16T00:13:37.276Z,10.00
2023-02-16T00:16:08.129Z,9.90
2023-02-16T00:18:38.133Z,10.70
2023-02-16T00:21:10.934Z,9.10
2023-02-16T00:23:41.808Z,9.90
2023-02-16T00:26:18.032Z,10.50
2023-02-16T00:28:48.393Z,9.10
2023-02-16T00:31:21.374Z,9.90
2023-02-16T00:33:51.917Z,9.60
2023-02-16T00:36:24.594Z,10.00
2023-02-16T00:41:39.704Z,10.50
2023-02-16T00:44:15.737Z,9.90
2023-02-16T00:46:46.676Z,9.90
2023-02-16T00:49:17.752Z,10.30
2023-02-16T00:51:51.007Z,10.90
2023-02-16T00:54:21.097Z,11.00
2023-02-16T00:56:53.304Z,10.50
2023-02-16T00:59:25.873Z,10.30
2023-02-16T01:01:57.624Z,10.90
2023-02-16T01:04:27.870Z,10.10
2023-02-16T01:07:12.963Z,10.50
2023-02-16T01:09:55.410Z,10.00
2023-02-16T01:12:25.753Z,10.90
2023-02-16T01:14:58.376Z,11.00
2023-02-16T01:19:58.722Z,10.70
2023-02-16T01:22:33.588Z,11.30
2023-02-16T01:25:03.660Z,10.30
2023-02-16T01:27:34.465Z,11.20
2023-02-16T01:30:04.766Z,9.40
2023-02-16T01:32:35.177Z,9.50
2023-02-16T01:35:05.324Z,9.10
2023-02-16T01:37:38.050Z,11.30
2023-02-16T01:42:44.005Z,11.00
2023-02-16T01:45:18.640Z,10.60
2023-02-16T01:47:52.871Z,11.00
2023-02-16T01:50:26.022Z,9.80
2023-02-16T01:53:01.945Z,11.20
2023-02-16T01:55:35.692Z,10.70
2023-02-16T01:58:12.175Z,11.10
2023-02-16T02:01:11.984Z,11.20
2023-02-16T02:03:54.893Z,10.40
2023-02-16T02:06:31.237Z,11.10
2023-02-16T02:09:09.077Z,10.40
2023-02-16T02:11:41.563Z,10.40
2023-02-16T02:14:16.472Z,9.20
2023-02-16T02:16:58.576Z,10.30
2023-02-16T02:19:28.882Z,11.00
2023-02-16T02:22:33.485Z,9.80
2023-02-16T02:25:40.668Z,10.40
2023-02-16T02:28:17.099Z,9.50
2023-02-16T02:30:52.645Z,10.80
2023-02-16T02:33:44.785Z,10.60
2023-02-16T02:36:25.367Z,11.00
2023-02-16T02:39:14.027Z,10.30
2023-02-16T02:42:09.362Z,10.30
2023-02-16T02:44:46.516Z,9.80
2023-02-16T02:49:53.294Z,10.50
2023-02-16T02:52:25.321Z,10.20
2023-02-16T02:55:07.807Z,10.30
2023-02-16T02:57:54.700Z,10.00
2023-02-16T03:00:43.411Z,10.90
2023-02-16T03:03:17.570Z,10.50
2023-02-16T03:05:51.361Z,9.30
2023-02-16T03:08:25.244Z,10.50
2023-02-16T03:11:10.920Z,11.40
2023-02-16T03:13:43.605Z,10.20
2023-02-16T03:16:19.870Z,10.30
2023-02-16T03:19:03.373Z,10.10
2023-02-16T03:21:47.009Z,9.50
2023-02-16T03:24:37.937Z,8.40
2023-02-16T03:27:21.050Z,9.90
2023-02-16T03:29:52.972Z,10.20
2023-02-16T03:32:25.892Z,9.80
2023-02-16T03:34:56.104Z,10.30
2023-02-16T03:37:26.281Z,9.50
2023-02-16T03:40:09.431Z,15.10
2023-02-16T03:42:39.448Z,9.80
2023-02-16T03:45:10.970Z,8.70
2023-02-16T03:47:43.590Z,10.30
2023-02-16T03:52:44.002Z,8.90
2023-02-16T03:55:14.361Z,9.30
2023-02-16T04:00:15.839Z,9.00
2023-02-16T04:02:48.226Z,9.70
2023-02-16T04:05:18.534Z,10.70
2023-02-16T04:07:48.524Z,9.90
2023-02-16T04:10:19.050Z,10.30
2023-02-16T04:12:46.630Z,10.10
2023-02-16T04:15:19.507Z,9.50
2023-02-16T04:17:52.511Z,10.10
2023-02-16T04:20:24.299Z,9.60
2023-02-16T04:22:54.775Z,10.50
2023-02-16T04:25:25.498Z,9.20
2023-02-16T04:27:56.268Z,8.20
2023-02-16T04:30:28.598Z,9.30
2023-02-16T04:33:01.684Z,8.90
2023-02-16T04:38:02.083Z,9.30
2023-02-16T04:40:32.338Z,9.30
2023-02-16T04:43:02.351Z,10.30
2023-02-16T04:45:32.855Z,10.00
2023-02-16T04:48:05.520Z,10.30
2023-02-16T04:50:35.772Z,10.80
2023-02-16T04:53:05.830Z,9.40
2023-02-16T04:55:36.189Z,9.40
2023-02-16T05:00:36.817Z,9.10
2023-02-16T05:03:09.519Z,9.70
2023-02-16T05:05:39.598Z,9.90
2023-02-16T05:08:09.882Z,11.10
2023-02-16T05:10:40.004Z,10.60
2023-02-16T05:13:22.440Z,9.20
2023-02-16T05:15:53.097Z,11.10
2023-02-16T05:18:25.798Z,10.60
2023-02-16T05:23:50.757Z,9.50
2023-02-16T05:26:20.943Z,11.30
2023-02-16T05:28:51.049Z,11.80
2023-02-16T05:31:21.323Z,11.20
2023-02-16T05:33:54.304Z,11.30
2023-02-16T05:36:25.106Z,11.00
2023-02-16T05:38:55.238Z,10.90
2023-02-16T05:41:28.061Z,10.70
2023-02-16T05:43:59.693Z,10.90
2023-02-16T05:46:32.086Z,10.60
2023-02-16T05:49:05.328Z,10.00
2023-02-16T05:51:36.316Z,9.20
2023-02-16T05:54:06.557Z,10.00
2023-02-16T05:56:37.164Z,9.80
2023-02-16T05:59:07.337Z,9.70
2023-02-16T06:01:40.869Z,9.40
2023-02-16T06:04:15.863Z,10.00
2023-02-16T06:06:46.983Z,10.40
2023-02-16T06:14:19.737Z,10.80
2023-02-16T06:16:52.430Z,11.30
2023-02-16T06:19:25.246Z,8.70
2023-02-16T06:21:56.977Z,9.30
2023-02-16T06:24:27.334Z,9.50
2023-02-16T06:26:57.537Z,9.30
2023-02-16T06:31:58.583Z,11.00
2023-02-16T06:34:31.516Z,11.20
2023-02-16T06:37:01.588Z,10.40
2023-02-16T06:44:32.387Z,10.70
2023-02-16T06:52:06.155Z,10.70
2023-02-16T06:54:36.276Z,10.10
2023-02-16T06:57:06.547Z,10.90
2023-02-16T06:59:36.630Z,11.00
2023-02-16T07:02:06.821Z,9.50
2023-02-16T07:04:39.588Z,10.10
2023-02-16T07:07:09.690Z,11.00
2023-02-16T07:09:39.870Z,9.20
2023-02-16T07:12:10.589Z,9.20
2023-02-16T07:14:43.128Z,10.50
2023-02-16T07:17:14.204Z,10.60
2023-02-16T07:19:46.879Z,11.00
2023-02-16T07:22:17.708Z,10.30
2023-02-16T07:24:47.915Z,10.70
2023-02-16T07:29:48.288Z,11.00
2023-02-16T07:32:18.596Z,10.90
2023-02-16T07:34:51.336Z,9.30
2023-02-16T07:37:21.550Z,10.10
2023-02-16T07:39:53.132Z,10.30
2023-02-16T07:42:23.671Z,10.10
2023-02-16T07:44:53.905Z,10.40
2023-02-16T07:47:24.071Z,9.60
2023-02-16T07:49:56.785Z,10.40
2023-02-16T07:57:32.361Z,10.90
2023-02-16T08:00:02.850Z,9.90
2023-02-16T08:02:33.260Z,10.30
2023-02-16T08:05:06.122Z,12.00
2023-02-16T08:07:36.364Z,10.20
2023-02-16T08:15:10.767Z,10.10
2023-02-16T08:17:41.375Z,9.60
2023-02-16T08:20:15.247Z,12.10
2023-02-16T08:22:45.354Z,11.30
2023-02-16T08:27:46.443Z,10.00
2023-02-16T08:30:18.511Z,11.30
2023-02-16T08:32:50.999Z,11.60
2023-02-16T08:35:23.765Z,10.90
2023-02-16T08:40:26.287Z,11.20
2023-02-16T08:42:56.399Z,11.00
2023-02-16T08:47:57.798Z,11.30
2023-02-16T08:50:30.592Z,10.30
2023-02-16T08:53:02.640Z,11.10
2023-02-16T08:55:36.134Z,9.80
2023-02-16T09:00:38.758Z,11.00
2023-02-16T09:03:09.084Z,10.40
2023-02-16T09:05:42.153Z,10.40
2023-02-16T09:13:17.107Z,9.50
2023-02-16T09:15:55.950Z,11.40
2023-02-16T09:21:01.039Z,10.80
2023-02-16T09:26:03.424Z,10.40
2023-02-16T09:33:35.090Z,9.80
2023-02-16T09:36:11.320Z,11.50
2023-02-16T09:38:47.610Z,10.90
2023-02-16T09:41:25.999Z,11.20
2023-02-16T09:44:01.152Z,11.00
2023-02-16T09:46:33.453Z,10.90
2023-02-16T09:49:06.665Z,9.80
2023-02-16T09:51:41.949Z,10.20
2023-02-16T09:54:23.120Z,9.70
2023-02-16T09:56:59.707Z,10.90
2023-02-16T09:59:43.261Z,11.40
2023-02-16T10:02:31.544Z,10.00
2023-02-16T10:05:22.178Z,10.90
2023-02-16T10:08:04.813Z,10.50
2023-02-16T10:10:42.589Z,11.40
2023-02-16T10:13:16.299Z,11.00
2023-02-16T10:15:48.636Z,9.90
2023-02-16T10:18:24.325Z,10.70
2023-02-16T10:20:58.151Z,10.20
2023-02-16T10:23:43.472Z,11.70
2023-02-16T10:26:20.226Z,11.30
2023-02-16T10:28:52.313Z,11.30
2023-02-16T10:31:29.611Z,12.00
2023-02-16T10:34:09.063Z,11.60
2023-02-16T10:39:27.894Z,12.10
2023-02-16T10:42:05.176Z,11.70
2023-02-16T10:44:40.436Z,12.60
2023-02-16T10:47:23.369Z,13.20
2023-02-16T10:49:54.843Z,13.40
2023-02-16T10:52:26.190Z,13.50
2023-02-16T10:54:59.328Z,14.20
2023-02-16T10:57:32.985Z,15.10
2023-02-16T11:00:07.011Z,16.10
2023-02-16T11:02:41.736Z,16.00
2023-02-16T11:05:36.544Z,16.40
2023-02-16T11:10:49.079Z,12.40
2023-02-16T11:13:32.649Z,12.80
2023-02-16T11:16:07.732Z,11.90
2023-02-16T11:18:40.982Z,13.60
2023-02-16T11:21:13.501Z,13.00
2023-02-16T11:23:45.143Z,12.90
2023-02-16T11:26:29.037Z,13.10
2023-02-16T11:29:10.841Z,13.70
2023-02-16T11:31:42.551Z,12.30
2023-02-16T11:34:18.463Z,13.80
2023-02-16T11:36:50.268Z,14.50
2023-02-16T11:39:24.889Z,14.30
2023-02-16T11:42:00.509Z,14.40
2023-02-16T11:44:34.610Z,14.80
2023-02-16T11:47:08.062Z,14.70
2023-02-16T11:49:40.117Z,14.30
2023-02-16T11:52:29.340Z,15.40
2023-02-16T11:55:02.699Z,14.50
2023-02-16T11:57:38.196Z,14.80
2023-02-16T12:00:22.067Z,15.00
2023-02-16T12:03:17.254Z,14.60
2023-02-16T12:05:57.586Z,14.70
2023-02-16T12:08:38.662Z,14.70
2023-02-16T12:11:20.330Z,13.60
2023-02-16T12:14:03.410Z,13.60
2023-02-16T12:16:40.148Z,14.50
2023-02-16T12:19:21.358Z,15.90
2023-02-16T12:21:54.693Z,14.70
2023-02-16T12:24:38.140Z,16.00
2023-02-16T12:27:15.913Z,14.70
2023-02-16T12:29:56.610Z,14.80
2023-02-16T12:32:51.402Z,15.50
2023-02-16T12:35:44.120Z,15.00
2023-02-16T12:38:28.861Z,14.60
2023-02-16T12:41:07.832Z,14.70
2023-02-16T12:43:42.521Z,14.30
2023-02-16T12:46:22.442Z,14.40
2023-02-16T12:48:57.202Z,14.30
2023-02-16T12:51:31.393Z,14.60
2023-02-16T12:54:10.541Z,13.20
2023-02-16T12:56:45.226Z,16.30
2023-02-16T12:59:22.907Z,15.00
2023-02-16T13:01:58.948Z,16.40
2023-02-16T13:04:40.487Z,15.70
2023-02-16T13:07:18.842Z,15.60
2023-02-16T13:09:57.815Z,15.40
2023-02-16T13:12:33.386Z,15.00
2023-02-16T13:15:15.493Z,15.00
2023-02-16T13:17:52.384Z,15.10
2023-02-16T13:20:24.445Z,15.10
2023-02-16T13:23:14.430Z,15.80
2023-02-16T13:26:11.396Z,15.40
2023-02-16T13:28:58.844Z,15.00
2023-02-16T13:31:40.374Z,14.90
2023-02-16T13:34:39.164Z,15.00
2023-02-16T13:37:28.976Z,15.00
2023-02-16T13:40:28.006Z,15.40
2023-02-16T13:43:09.049Z,16.10
2023-02-16T13:45:43.991Z,15.00
2023-02-16T13:48:23.898Z,15.00
2023-02-16T13:51:04.049Z,14.70
2023-02-16T13:53:38.724Z,14.90
2023-02-16T13:56:22.115Z,15.30
2023-02-16T13:58:53.029Z,15.10
2023-02-16T14:01:39.953Z,14.90
2023-02-16T14:04:15.985Z,16.90
2023-02-16T14:06:48.709Z,15.20
2023-02-16T14:09:39.211Z,15.30
2023-02-16T14:12:27.235Z,15.30
2023-02-16T14:15:03.768Z,15.10
2023-02-16T14:17:36.585Z,15.50
2023-02-16T14:20:27.426Z,15.00
2023-02-16T14:23:01.379Z,15.10
2023-02-16T14:25:41.486Z,14.90
2023-02-16T14:28:48.054Z,14.90
2023-02-16T14:31:23.128Z,14.10
2023-02-16T14:34:10.446Z,14.30
2023-02-16T14:37:24.337Z,14.30
2023-02-16T14:40:07.938Z,14.50
2023-02-16T14:42:39.809Z,14.50
2023-02-16T14:45:30.517Z,14.20
2023-02-16T14:48:17.828Z,14.90
2023-02-16T14:51:03.569Z,13.10
2023-02-16T14:54:11.511Z,14.70
2023-02-16T14:56:47.956Z,14.80
2023-02-16T14:59:35.134Z,13.60
2023-02-16T15:02:30.150Z,13.40
2023-02-16T15:05:01.128Z,14.40
2023-02-16T15:07:31.524Z,13.80
2023-02-16T15:10:02.383Z,13.90
2023-02-16T15:12:37.335Z,13.00
2023-02-16T15:15:10.656Z,13.90
2023-02-16T15:17:45.036Z,15.30
2023-02-16T15:20:25.027Z,13.70
2023-02-16T15:22:57.873Z,14.30
2023-02-16T15:25:32.745Z,14.20
2023-02-16T15:28:18.677Z,15.20
2023-02-16T15:30:52.442Z,14.00
2023-02-16T15:33:38.825Z,14.20
2023-02-16T15:36:13.555Z,14.00
2023-02-16T15:38:46.428Z,14.60
2023-02-16T15:41:18.609Z,13.50
2023-02-16T15:43:53.775Z,14.70
2023-02-16T15:46:29.006Z,13.30
2023-02-16T15:48:59.385Z,14.30
2023-02-16T15:51:32.500Z,13.70
2023-02-16T15:54:04.917Z,14.70
2023-02-16T15:56:42.412Z,13.60
2023-02-16T15:59:32.914Z,12.80
2023-02-16T16:02:13.472Z,13.00
2023-02-16T16:04:45.778Z,13.80
2023-02-16T16:07:18.057Z,14.30
2023-02-16T16:09:49.250Z,14.00
2023-02-16T16:12:22.059Z,13.90
2023-02-16T16:14:58.501Z,13.90
2023-02-16T16:17:32.063Z,13.90
2023-02-16T16:20:19.877Z,13.10
2023-02-16T16:22:50.168Z,13.20
2023-02-16T16:25:43.455Z,13.40
2023-02-16T16:28:17.643Z,12.80
2023-02-16T16:30:50.435Z,12.70
2023-02-16T16:33:20.636Z,12.30
2023-02-16T16:35:52.638Z,13.10
2023-02-16T16:38:27.836Z,12.80
2023-02-16T16:41:00.527Z,13.10
2023-02-16T16:43:32.414Z,13.00
2023-02-16T16:46:21.846Z,13.80
2023-02-16T16:48:55.181Z,12.90
2023-02-16T16:51:40.857Z,12.90
2023-02-16T16:54:14.585Z,14.40
2023-02-16T16:56:45.108Z,12.90
2023-02-16T16:59:15.433Z,13.80
2023-02-16T17:01:50.688Z,13.10
2023-02-16T17:04:22.345Z,13.40
2023-02-16T17:06:52.606Z,13.70
2023-02-16T17:11:59.378Z,13.20
2023-02-16T17:14:29.819Z,12.70
2023-02-16T17:17:02.558Z,12.40
2023-02-16T17:22:04.221Z,13.00
2023-02-16T17:24:34.065Z,13.20
2023-02-16T17:27:04.300Z,14.40
2023-02-16T17:37:10.266Z,12.90
2023-02-16T17:39:40.398Z,14.50
2023-02-16T17:42:16.723Z,12.70
2023-02-16T17:44:47.071Z,13.10
2023-02-16T17:47:20.341Z,13.20
2023-02-16T17:49:50.407Z,13.90
2023-02-16T17:52:20.494Z,12.60
2023-02-16T17:54:50.632Z,13.40
2023-02-16T17:57:21.293Z,12.50
2023-02-16T17:59:54.386Z,13.40
2023-02-16T18:02:29.454Z,13.50
2023-02-16T18:04:59.577Z,13.00
2023-02-16T18:07:30.324Z,11.80
2023-02-16T18:10:00.664Z,11.30
2023-02-16T18:12:30.844Z,13.60
2023-02-16T18:15:00.873Z,13.70
2023-02-16T18:17:33.717Z,12.00
2023-02-16T18:20:04.543Z,12.80
2023-02-16T18:22:34.679Z,12.60
2023-02-16T18:25:04.850Z,13.10
2023-02-16T18:27:34.929Z,13.60
2023-02-16T18:30:05.341Z,12.60
2023-02-16T18:32:38.079Z,12.70
2023-02-16T18:35:09.039Z,13.00
2023-02-16T18:37:39.590Z,13.00
2023-02-16T18:40:13.800Z,14.40
2023-02-16T18:42:44.306Z,13.90
2023-02-16T18:45:14.809Z,12.00
2023-02-16T18:47:47.712Z,12.60
2023-02-16T18:50:17.989Z,11.80
2023-02-16T18:52:48.289Z,13.20
2023-02-16T18:55:18.961Z,14.10
2023-02-16T18:57:49.289Z,12.60
2023-02-16T19:00:21.958Z,12.80
2023-02-16T19:02:55.404Z,12.80
2023-02-16T19:05:25.989Z,11.60
2023-02-16T19:07:56.092Z,11.50
2023-02-16T19:10:26.705Z,12.80
2023-02-16T19:12:56.828Z,12.10
2023-02-16T19:15:27.186Z,12.10
2023-02-16T19:17:59.935Z,11.90
2023-02-16T19:20:31.016Z,11.20
2023-02-16T19:23:00.841Z,12.40
2023-02-16T19:25:31.488Z,11.20
2023-02-16T19:28:01.762Z,12.80
2023-02-16T19:30:32.012Z,12.40
2023-02-16T19:33:04.832Z,12.30
2023-02-16T19:35:35.381Z,13.80
2023-02-16T19:38:05.503Z,12.50
2023-02-16T19:40:35.712Z,10.90
2023-02-16T19:43:06.006Z,12.20
2023-02-16T19:45:41.512Z,12.20
2023-02-16T19:48:14.160Z,11.50
2023-02-16T19:50:44.575Z,11.10
2023-02-16T19:53:14.686Z,12.70
2023-02-16T19:55:45.663Z,13.20
2023-02-16T19:58:15.744Z,12.60
2023-02-16T20:03:19.318Z,13.50
2023-02-16T20:10:50.926Z,11.90
2023-02-16T20:13:20.988Z,13.20
2023-02-16T20:15:53.955Z,13.30
2023-02-16T20:18:26.678Z,12.20
2023-02-16T20:21:01.932Z,12.70
2023-02-16T20:23:32.709Z,12.30
2023-02-16T20:26:03.440Z,12.70
2023-02-16T20:28:33.859Z,13.20
2023-02-16T20:31:04.723Z,12.90
2023-02-16T20:36:10.589Z,13.40
2023-02-16T20:38:41.675Z,12.90
2023-02-16T20:41:11.825Z,12.70
2023-02-16T20:43:42.049Z,12.30
2023-02-16T20:46:14.262Z,11.90
2023-02-16T20:48:50.118Z,12.70
2023-02-16T20:51:22.464Z,13.10
2023-02-16T20:53:53.075Z,12.60
2023-02-16T20:56:25.736Z,13.30
2023-02-16T20:58:57.442Z,13.30
2023-02-16T21:01:29.476Z,12.80
2023-02-16T21:04:03.414Z,13.00
2023-02-16T21:06:33.685Z,13.30
2023-02-16T21:11:34.309Z,12.70
2023-02-16T21:14:05.039Z,13.10
2023-02-16T21:16:35.745Z,12.70
2023-02-16T21:19:20.893Z,12.90
2023-02-16T21:21:53.079Z,12.00
2023-02-16T21:24:23.224Z,13.10
2023-02-16T21:26:53.420Z,12.20
2023-02-16T21:29:23.495Z,12.20
2023-02-16T21:34:26.760Z,11.50
2023-02-16T21:36:56.883Z,13.60
2023-02-16T21:42:14.840Z,12.90
2023-02-16T21:45:05.921Z,12.20
2023-02-16T21:47:48.470Z,11.60
2023-02-16T21:50:22.515Z,13.30
2023-02-16T21:55:35.424Z,12.50
2023-02-16T21:58:08.128Z,12.90
2023-02-16T22:00:38.659Z,13.10
2023-02-16T22:03:09.531Z,13.00
2023-02-16T22:05:42.285Z,13.10
2023-02-16T22:08:14.352Z,12.60
2023-02-16T22:10:44.611Z,13.10
2023-02-16T22:13:15.296Z,12.60
2023-02-16T22:15:49.070Z,13.30
2023-02-16T22:18:34.264Z,13.50
2023-02-16T22:24:52.016Z,13.20
2023-02-16T22:30:28.413Z,11.50
2023-02-16T22:32:58.500Z,12.10
2023-02-16T22:38:01.564Z,10.60
2023-02-16T22:40:31.960Z,11.20
2023-02-16T22:45:36.600Z,13.30
2023-02-16T22:53:10.420Z,13.40
2023-02-16T22:55:47.983Z,13.30
2023-02-16T22:58:17.880Z,13.20
2023-02-16T23:00:51.087Z,13.10
2023-02-16T23:03:22.007Z,13.00
2023-02-16T23:05:58.259Z,13.30
2023-02-16T23:08:47.697Z,12.90
2023-02-16T23:11:17.864Z,13.70
2023-02-16T23:13:54.413Z,11.50
2023-02-16T23:16:27.611Z,12.80
2023-02-16T23:19:04.993Z,12.40
2023-02-16T23:21:36.187Z,13.00
2023-02-16T23:26:39.518Z,11.80
2023-02-16T23:29:10.113Z,13.90
2023-02-16T23:31:42.115Z,12.20
2023-02-16T23:39:18.164Z,12.70
2023-02-16T23:41:48.486Z,11.40
2023-02-16T23:44:19.003Z,12.70
2023-02-16T23:46:50.973Z,13.50
2023-02-16T23:49:21.127Z,13.20
2023-02-16T23:51:51.395Z,12.80
2023-02-16T23:54:24.155Z,13.00
2023-02-16T23:57:04.422Z,12.90
2023-02-16T23:59:34.574Z,13.80
